sensor_id;sensor_type;location;lat;lon;timestamp;temperature;humidity
20566;DHT22;10441;50.884;12.064;2022-10-03T00:02:30;10.70;96.10
20566;DHT22;10441;50.884;12.064;2022-10-03T00:05:06;10.80;1.00
20566;DHT22;10441;50.884;12.064;2022-10-03T00:07:41;10.60;1.00
20566;DHT22;10441;50.884;12.064;2022-10-03T00:10:17;10.50;57.40
20566;DHT22;10441;50.884;12.064;2022-10-03T00:12:56;10.40;1.00
20566;DHT22;10441;50.884;12.064;2022-10-03T00:15:26;10.30;99.90
20566;DHT22;10441;50.884;12.064;2022-10-03T00:17:57;10.40;99.90
20566;DHT22;10441;50.884;12.064;2022-10-03T00:20:31;10.40;36.10
20566;DHT22;10441;50.884;12.064;2022-10-03T00:23:01;10.40;99.90
20566;DHT22;10441;50.884;12.064;2022-10-03T00:25:35;10.40;1.00
20566;DHT22;10441;50.884;12.064;2022-10-03T00:28:09;10.10;99.90
20566;DHT22;10441;50.884;12.064;2022-10-03T00:30:44;9.90;1.00
20566;DHT22;10441;50.884;12.064;2022-10-03T00:33:13;9.80;1.00
20566;DHT22;10441;50.884;12.064;2022-10-03T00:35:49;10.10;1.00
20566;DHT22;10441;50.884;12.064;2022-10-03T00:38:21;10.10;1.00
20566;DHT22;10441;50.884;12.064;2022-10-03T00:43:44;10.10;1.00
20566;DHT22;10441;50.884;12.064;2022-10-03T00:49:14;10.20;99.90
20566;DHT22;10441;50.884;12.064;2022-10-03T00:51:50;10.30;1.00
20566;DHT22;10441;50.884;12.064;2022-10-03T00:54:23;10.20;1.00
20566;DHT22;10441;50.884;12.064;2022-10-03T00:56:57;10.20;1.00
20566;DHT22;10441;50.884;12.064;2022-10-03T00:59:37;10.20;1.00
20566;DHT22;10441;50.884;12.064;2022-10-03T01:02:16;10.20;1.00
20566;DHT22;10441;50.884;12.064;2022-10-03T01:04:47;10.40;1.00
20566;DHT22;10441;50.884;12.064;2022-10-03T01:07:23;10.40;99.90
20566;DHT22;10441;50.884;12.064;2022-10-03T01:09:58;10.40;99.90
20566;DHT22;10441;50.884;12.064;2022-10-03T01:15:18;10.50;99.90
20566;DHT22;10441;50.884;12.064;2022-10-03T01:17:52;10.40;99.90
20566;DHT22;10441;50.884;12.064;2022-10-03T01:20:27;10.40;99.90
20566;DHT22;10441;50.884;12.064;2022-10-03T01:23:10;10.40;99.90
20566;DHT22;10441;50.884;12.064;2022-10-03T01:25:41;10.50;99.90
20566;DHT22;10441;50.884;12.064;2022-10-03T01:28:21;10.50;99.90
20566;DHT22;10441;50.884;12.064;2022-10-03T01:31:12;10.50;99.90
20566;DHT22;10441;50.884;12.064;2022-10-03T01:33:41;10.60;44.30
20566;DHT22;10441;50.884;12.064;2022-10-03T01:36:09;10.50;54.60
20566;DHT22;10441;50.884;12.064;2022-10-03T02:42:24;10.50;99.90
20566;DHT22;10441;50.884;12.064;2022-10-03T02:50:53;10.50;29.70
20566;DHT22;10441;50.884;12.064;2022-10-03T02:56:16;10.50;3.30
20566;DHT22;10441;50.884;12.064;2022-10-03T02:58:56;10.60;1.00
20566;DHT22;10441;50.884;12.064;2022-10-03T03:01:40;10.50;1.00
20566;DHT22;10441;50.884;12.064;2022-10-03T03:07:15;10.50;1.00
20566;DHT22;10441;50.884;12.064;2022-10-03T03:12:39;10.50;1.00
20566;DHT22;10441;50.884;12.064;2022-10-03T03:17:58;10.40;15.20
20566;DHT22;10441;50.884;12.064;2022-10-03T03:26:18;10.10;99.90
20566;DHT22;10441;50.884;12.064;2022-10-03T03:28:51;9.90;1.00
20566;DHT22;10441;50.884;12.064;2022-10-03T03:31:23;10.10;1.00
20566;DHT22;10441;50.884;12.064;2022-10-03T03:33:57;10.10;1.00
20566;DHT22;10441;50.884;12.064;2022-10-03T03:36:29;10.10;1.00
20566;DHT22;10441;50.884;12.064;2022-10-03T03:38:59;10.10;1.00
20566;DHT22;10441;50.884;12.064;2022-10-03T06:33:12;11.10;1.00
20566;DHT22;10441;50.884;12.064;2022-10-03T06:35:55;11.10;1.00
20566;DHT22;10441;50.884;12.064;2022-10-03T06:44:03;11.40;1.00
20566;DHT22;10441;50.884;12.064;2022-10-03T06:46:47;11.60;1.00
20566;DHT22;10441;50.884;12.064;2022-10-03T06:49:28;12.50;1.00
20566;DHT22;10441;50.884;12.064;2022-10-03T06:52:06;13.00;1.00
20566;DHT22;10441;50.884;12.064;2022-10-03T06:57:28;13.00;1.00
20566;DHT22;10441;50.884;12.064;2022-10-03T07:00:00;12.70;1.00
20566;DHT22;10441;50.884;12.064;2022-10-03T07:11:03;12.60;1.00
20566;DHT22;10441;50.884;12.064;2022-10-03T07:24:37;12.60;1.00
20566;DHT22;10441;50.884;12.064;2022-10-03T07:27:23;12.60;1.00
20566;DHT22;10441;50.884;12.064;2022-10-03T07:29:57;12.80;1.00
20566;DHT22;10441;50.884;12.064;2022-10-03T11:36:28;15.90;99.90
20566;DHT22;10441;50.884;12.064;2022-10-03T11:38:58;16.80;99.90
20566;DHT22;10441;50.884;12.064;2022-10-03T11:41:31;17.50;99.90
20566;DHT22;10441;50.884;12.064;2022-10-03T11:46:50;16.90;99.90
20566;DHT22;10441;50.884;12.064;2022-10-03T11:52:03;15.90;99.90
20566;DHT22;10441;50.884;12.064;2022-10-03T11:54:33;16.10;99.90
20566;DHT22;10441;50.884;12.064;2022-10-03T11:57:04;16.30;99.90
20566;DHT22;10441;50.884;12.064;2022-10-03T11:59:35;15.90;99.90
20566;DHT22;10441;50.884;12.064;2022-10-03T12:02:11;15.50;99.90
20566;DHT22;10441;50.884;12.064;2022-10-03T12:04:43;15.60;99.90
20566;DHT22;10441;50.884;12.064;2022-10-03T12:07:14;15.30;99.90
20566;DHT22;10441;50.884;12.064;2022-10-03T12:10:06;15.50;99.90
20566;DHT22;10441;50.884;12.064;2022-10-03T12:12:38;16.10;99.90
20566;DHT22;10441;50.884;12.064;2022-10-03T12:17:52;17.00;99.90
20566;DHT22;10441;50.884;12.064;2022-10-03T12:20:22;16.20;99.90
20566;DHT22;10441;50.884;12.064;2022-10-03T12:22:54;16.50;99.90
20566;DHT22;10441;50.884;12.064;2022-10-03T12:25:23;15.90;99.90
20566;DHT22;10441;50.884;12.064;2022-10-03T12:28:00;16.40;99.90
20566;DHT22;10441;50.884;12.064;2022-10-03T12:30:29;17.10;99.90
20566;DHT22;10441;50.884;12.064;2022-10-03T12:33:06;17.80;99.90
20566;DHT22;10441;50.884;12.064;2022-10-03T12:35:37;17.80;99.90
20566;DHT22;10441;50.884;12.064;2022-10-03T16:10:43;14.00;99.90
20566;DHT22;10441;50.884;12.064;2022-10-03T16:13:21;14.00;99.90
20566;DHT22;10441;50.884;12.064;2022-10-03T16:15:58;14.10;99.90
20566;DHT22;10441;50.884;12.064;2022-10-03T16:18:42;14.00;99.90
20566;DHT22;10441;50.884;12.064;2022-10-03T16:21:13;13.90;99.90
20566;DHT22;10441;50.884;12.064;2022-10-03T16:23:41;13.70;99.90
20566;DHT22;10441;50.884;12.064;2022-10-03T16:26:13;13.60;99.90
20566;DHT22;10441;50.884;12.064;2022-10-03T16:28:45;13.70;99.90
20566;DHT22;10441;50.884;12.064;2022-10-03T16:31:17;13.70;99.90
20566;DHT22;10441;50.884;12.064;2022-10-03T16:33:46;13.70;99.90
20566;DHT22;10441;50.884;12.064;2022-10-03T16:36:16;13.70;99.90
20566;DHT22;10441;50.884;12.064;2022-10-03T16:38:43;13.70;99.90
20566;DHT22;10441;50.884;12.064;2022-10-03T16:41:14;13.70;99.90
20566;DHT22;10441;50.884;12.064;2022-10-03T16:43:52;13.60;99.90
20566;DHT22;10441;50.884;12.064;2022-10-03T16:46:20;13.50;1.00
20566;DHT22;10441;50.884;12.064;2022-10-03T16:48:48;13.40;1.00
20566;DHT22;10441;50.884;12.064;2022-10-03T16:51:35;13.20;1.00
20566;DHT22;10441;50.884;12.064;2022-10-03T16:54:03;13.20;1.00
20566;DHT22;10441;50.884;12.064;2022-10-03T16:56:34;13.20;1.00
20566;DHT22;10441;50.884;12.064;2022-10-03T16:59:04;13.10;1.00
20566;DHT22;10441;50.884;12.064;2022-10-03T17:01:33;13.10;1.00
20566;DHT22;10441;50.884;12.064;2022-10-03T17:04:10;13.20;1.00
20566;DHT22;10441;50.884;12.064;2022-10-03T17:06:40;13.20;1.00
20566;DHT22;10441;50.884;12.064;2022-10-03T17:09:14;13.20;1.00
20566;DHT22;10441;50.884;12.064;2022-10-03T17:42:05;12.80;1.00
20566;DHT22;10441;50.884;12.064;2022-10-03T17:44:35;12.70;1.00
20566;DHT22;10441;50.884;12.064;2022-10-03T17:47:05;12.70;1.00
20566;DHT22;10441;50.884;12.064;2022-10-03T17:49:43;12.80;1.00
20566;DHT22;10441;50.884;12.064;2022-10-03T17:52:11;12.70;1.00
20566;DHT22;10441;50.884;12.064;2022-10-03T17:54:39;12.80;1.00
20566;DHT22;10441;50.884;12.064;2022-10-03T17:57:08;12.70;1.00
20566;DHT22;10441;50.884;12.064;2022-10-03T17:59:39;12.80;1.00
20566;DHT22;10441;50.884;12.064;2022-10-03T18:02:14;12.80;1.00
20566;DHT22;10441;50.884;12.064;2022-10-03T18:04:43;12.80;1.00
20566;DHT22;10441;50.884;12.064;2022-10-03T18:07:11;12.80;1.00
20566;DHT22;10441;50.884;12.064;2022-10-03T18:09:42;12.80;1.00
20566;DHT22;10441;50.884;12.064;2022-10-03T18:12:18;12.90;1.00
20566;DHT22;10441;50.884;12.064;2022-10-03T18:17:33;12.80;1.00
20566;DHT22;10441;50.884;12.064;2022-10-03T18:20:11;12.80;1.00
20566;DHT22;10441;50.884;12.064;2022-10-03T18:22:45;12.90;1.00
20566;DHT22;10441;50.884;12.064;2022-10-03T18:25:14;13.00;1.00
20566;DHT22;10441;50.884;12.064;2022-10-03T18:28:12;13.00;1.00
20566;DHT22;10441;50.884;12.064;2022-10-03T18:30:44;12.80;1.00
20566;DHT22;10441;50.884;12.064;2022-10-03T18:33:13;12.80;1.00
20566;DHT22;10441;50.884;12.064;2022-10-03T18:35:41;12.90;1.00
20566;DHT22;10441;50.884;12.064;2022-10-03T18:38:12;12.90;1.00
20566;DHT22;10441;50.884;12.064;2022-10-03T18:40:45;12.90;1.00
20566;DHT22;10441;50.884;12.064;2022-10-03T19:44:05;12.60;1.00
20566;DHT22;10441;50.884;12.064;2022-10-03T19:46:37;12.60;1.00
20566;DHT22;10441;50.884;12.064;2022-10-03T19:51:54;12.50;1.00
20566;DHT22;10441;50.884;12.064;2022-10-03T19:54:42;12.50;1.00
20566;DHT22;10441;50.884;12.064;2022-10-03T19:57:12;12.50;1.00
20566;DHT22;10441;50.884;12.064;2022-10-03T19:59:44;12.40;1.00
20566;DHT22;10441;50.884;12.064;2022-10-03T20:02:11;12.40;1.00
20566;DHT22;10441;50.884;12.064;2022-10-03T20:04:38;12.30;1.00
20566;DHT22;10441;50.884;12.064;2022-10-03T20:07:08;12.30;1.00
20566;DHT22;10441;50.884;12.064;2022-10-03T20:09:36;12.30;1.00
20566;DHT22;10441;50.884;12.064;2022-10-03T20:12:06;12.20;1.00
20566;DHT22;10441;50.884;12.064;2022-10-03T20:14:35;12.20;1.00
20566;DHT22;10441;50.884;12.064;2022-10-03T20:17:08;12.30;1.00
20566;DHT22;10441;50.884;12.064;2022-10-03T20:19:40;12.40;1.00
20566;DHT22;10441;50.884;12.064;2022-10-03T20:22:10;12.40;1.00
20566;DHT22;10441;50.884;12.064;2022-10-03T20:24:39;12.30;1.00
20566;DHT22;10441;50.884;12.064;2022-10-03T20:27:12;12.40;1.00
20566;DHT22;10441;50.884;12.064;2022-10-03T20:29:44;12.50;1.00
20566;DHT22;10441;50.884;12.064;2022-10-03T20:32:15;12.50;1.00
20566;DHT22;10441;50.884;12.064;2022-10-03T20:34:43;12.50;1.00
20566;DHT22;10441;50.884;12.064;2022-10-03T20:37:26;12.50;1.00
20566;DHT22;10441;50.884;12.064;2022-10-03T20:39:59;12.50;1.00
20566;DHT22;10441;50.884;12.064;2022-10-03T20:42:30;12.50;1.00
